createdAt,value
2016-07-28T00:00:54.243Z,66.82
2016-07-28T00:01:54.270Z,66.53
2016-07-28T00:02:54.297Z,66.53
2016-07-28T00:03:54.324Z,66.43
2016-07-28T00:04:54.354Z,66.53
2016-07-28T00:05:54.376Z,66.33
2016-07-28T00:06:54.404Z,66.63
2016-07-28T00:07:54.430Z,66.43
2016-07-28T00:08:54.457Z,66.43
2016-07-28T00:09:54.502Z,66.43
2016-07-28T00:10:54.511Z,66.82
2016-07-28T00:11:54.539Z,66.72
2016-07-28T00:12:54.562Z,66.72
2016-07-28T00:13:54.599Z,66.33
2016-07-28T00:14:54.616Z,66.91
2016-07-28T00:15:54.644Z,66.72
2016-07-28T00:16:54.670Z,66.82
2016-07-28T00:17:54.698Z,66.82
2016-07-28T00:18:54.726Z,66.33
2016-07-28T00:20:54.779Z,66.53
2016-07-28T00:21:54.807Z,66.63
2016-07-28T00:22:54.833Z,66.82
2016-07-28T00:23:54.862Z,66.91
2016-07-28T00:24:54.884Z,67.3
2016-07-28T00:25:54.913Z,66.91
2016-07-28T00:26:54.942Z,66.91
2016-07-28T00:27:54.966Z,67.21
2016-07-28T00:28:54.991Z,66.53
2016-07-28T00:29:55.020Z,66.63
2016-07-28T00:30:55.046Z,67.11
2016-07-28T00:31:55.076Z,67.11
2016-07-28T00:32:55.099Z,67.01
2016-07-28T00:33:55.127Z,67.01
2016-07-28T00:34:55.156Z,67.11
2016-07-28T00:35:55.180Z,66.82
2016-07-28T00:36:55.217Z,67.01
2016-07-28T00:37:55.233Z,67.01
2016-07-28T00:38:55.260Z,67.21
2016-07-28T00:39:55.290Z,67.01
2016-07-28T00:40:55.311Z,67.11
2016-07-28T00:41:55.340Z,67.01
2016-07-28T00:42:55.364Z,66.82
2016-07-28T00:43:55.395Z,67.11
2016-07-28T00:44:55.422Z,67.01
2016-07-28T00:45:55.455Z,67.01
2016-07-28T00:46:55.473Z,66.91
2016-07-28T00:47:55.503Z,67.11
2016-07-28T00:48:55.526Z,66.82
2016-07-28T00:49:55.562Z,67.11
2016-07-28T00:50:55.583Z,67.21
2016-07-28T00:51:55.621Z,67.11
2016-07-28T00:52:55.632Z,66.91
2016-07-28T00:53:55.667Z,67.01
2016-07-28T00:54:55.688Z,67.01
2016-07-28T00:55:56.418Z,67.4
2016-07-28T00:56:55.739Z,67.3
2016-07-28T00:57:55.772Z,67.21
2016-07-28T00:58:55.793Z,67.21
2016-07-28T00:59:55.818Z,67.3
2016-07-28T01:00:55.847Z,67.01
2016-07-28T01:01:55.873Z,66.91
2016-07-28T01:02:55.898Z,67.11
2016-07-28T01:03:55.926Z,67.3
2016-07-28T01:04:55.953Z,67.3
2016-07-28T01:05:55.989Z,67.21
2016-07-28T01:06:56.008Z,67.3
2016-07-28T01:07:56.035Z,67.21
2016-07-28T01:08:56.064Z,67.21
2016-07-28T01:09:56.090Z,67.01
2016-07-28T01:10:56.114Z,67.11
2016-07-28T01:11:56.146Z,67.01
2016-07-28T01:12:56.169Z,67.69
2016-07-28T01:13:56.198Z,67.01
2016-07-28T01:14:56.221Z,67.21
2016-07-28T01:15:56.250Z,67.11
2016-07-28T01:16:56.274Z,67.21
2016-07-28T01:17:56.302Z,67.01
2016-07-28T01:18:56.325Z,67.21
2016-07-28T01:19:56.356Z,67.11
2016-07-28T01:20:56.382Z,67.01
2016-07-28T01:21:56.409Z,67.3
2016-07-28T01:22:56.434Z,67.27
2016-07-28T01:23:56.461Z,67.49
2016-07-28T01:24:56.489Z,67.4
2016-07-28T01:25:56.521Z,67.59
2016-07-28T01:26:56.544Z,67.21
2016-07-28T01:27:56.567Z,67.3
2016-07-28T01:28:56.593Z,67.49
2016-07-28T01:29:56.629Z,67.49
2016-07-28T01:30:56.646Z,67.21
2016-07-28T01:31:56.679Z,67.69
2016-07-28T01:32:56.699Z,67.66
2016-07-28T01:33:56.734Z,67.59
2016-07-28T01:34:56.754Z,67.69
2016-07-28T01:35:56.786Z,67.3
2016-07-28T01:36:56.807Z,67.4
2016-07-28T01:37:56.834Z,67.59
2016-07-28T01:38:56.860Z,67.69
2016-07-28T01:39:56.886Z,67.69
2016-07-28T01:40:56.914Z,67.79
2016-07-28T01:41:56.944Z,67.75
2016-07-28T01:42:56.967Z,67.3
2016-07-28T01:43:56.993Z,67.3
2016-07-28T01:44:57.018Z,67.4
2016-07-28T01:45:57.051Z,67.59
2016-07-28T01:46:57.072Z,67.79
2016-07-28T01:47:57.105Z,67.49
2016-07-28T01:48:57.128Z,67.79
2016-07-28T01:49:57.161Z,67.59
2016-07-28T01:50:57.179Z,67.69
2016-07-28T01:51:57.214Z,67.69
2016-07-28T01:52:57.234Z,67.36
2016-07-28T01:53:57.267Z,67.79
2016-07-28T01:54:57.289Z,67.46
2016-07-28T01:55:57.320Z,67.66
2016-07-28T01:56:57.338Z,67.59
2016-07-28T01:57:57.375Z,67.49
2016-07-28T01:58:57.391Z,67.88
2016-07-28T01:59:57.425Z,67.69
2016-07-28T02:00:57.445Z,67.79
2016-07-28T02:01:57.475Z,67.36
2016-07-28T02:02:57.498Z,67.75
2016-07-28T02:03:57.531Z,67.69
2016-07-28T02:04:57.553Z,67.66
2016-07-28T02:05:57.579Z,67.49
2016-07-28T02:06:57.606Z,67.46
2016-07-28T02:07:57.635Z,67.66
2016-07-28T02:08:57.669Z,67.4
2016-07-28T02:09:57.686Z,67.36
2016-07-28T02:10:57.711Z,67.66
2016-07-28T02:11:57.743Z,67.49
2016-07-28T02:12:57.770Z,67.46
2016-07-28T02:13:57.792Z,67.46
2016-07-28T02:14:57.818Z,67.36
2016-07-28T02:15:57.844Z,67.69
2016-07-28T02:16:57.871Z,67.66
2016-07-28T02:17:57.904Z,67.4
2016-07-28T02:18:57.925Z,67.36
2016-07-28T02:19:57.958Z,67.69
2016-07-28T02:20:57.977Z,67.49
2016-07-28T02:21:58.008Z,67.4
2016-07-28T02:22:58.030Z,67.69
2016-07-28T02:23:58.059Z,67.46
2016-07-28T02:24:58.083Z,67.49
2016-07-28T02:25:58.111Z,67.59
2016-07-28T02:26:58.138Z,67.46
2016-07-28T02:27:58.165Z,67.88
2016-07-28T02:28:58.191Z,67.49
2016-07-28T02:29:58.218Z,67.46
2016-07-28T02:30:58.245Z,67.79
2016-07-28T02:31:58.274Z,67.49
2016-07-28T02:32:58.298Z,67.49
2016-07-28T02:33:58.323Z,67.49
2016-07-28T02:34:58.350Z,67.49
2016-07-28T02:35:58.385Z,67.49
2016-07-28T02:36:58.402Z,67.49
2016-07-28T02:37:59.129Z,67.59
2016-07-28T02:38:58.708Z,67.69
2016-07-28T02:39:58.487Z,67.46
2016-07-28T02:40:58.513Z,67.46
2016-07-28T02:41:58.538Z,67.56
2016-07-28T02:42:58.563Z,67.36
2016-07-28T02:43:58.607Z,67.4
2016-07-28T02:44:58.622Z,67.36
2016-07-28T02:45:58.644Z,67.46
2016-07-28T02:46:58.671Z,67.46
2016-07-28T02:47:58.699Z,67.27
2016-07-28T02:48:58.725Z,67.21
2016-07-28T02:49:58.757Z,67.66
2016-07-28T02:50:58.777Z,67.27
2016-07-28T02:51:58.811Z,67.75
2016-07-28T02:52:58.829Z,67.46
2016-07-28T02:53:58.869Z,67.46
2016-07-28T02:54:58.881Z,67.27
2016-07-28T02:55:58.919Z,67.08
2016-07-28T02:56:58.935Z,67.3
2016-07-28T02:57:58.971Z,67.4
2016-07-28T02:58:58.988Z,67.36
2016-07-28T02:59:59.017Z,67.56
2016-07-28T03:00:59.040Z,67.36
2016-07-28T03:01:59.771Z,67.46
2016-07-28T03:02:59.098Z,67.36
2016-07-28T03:03:59.120Z,67.27
2016-07-28T03:04:59.147Z,67.75
2016-07-28T03:05:59.181Z,67.27
2016-07-28T03:06:59.203Z,67.36
2016-07-28T03:07:59.231Z,67.46
2016-07-28T03:08:59.253Z,67.27
2016-07-28T03:09:59.283Z,67.46
2016-07-28T03:10:59.308Z,67.66
2016-07-28T03:11:59.335Z,67.27
2016-07-28T03:12:59.360Z,67.56
2016-07-28T03:13:59.391Z,67.27
2016-07-28T03:14:59.414Z,67.27
2016-07-28T03:15:59.443Z,67.36
2016-07-28T03:16:59.468Z,67.46
2016-07-28T03:17:59.503Z,67.27
2016-07-28T03:18:59.520Z,67.46
2016-07-28T03:19:59.547Z,67.56
2016-07-28T03:20:59.575Z,67.46
2016-07-28T03:21:59.603Z,67.66
2016-07-28T03:22:59.628Z,67.46
2016-07-28T03:23:59.666Z,67.36
2016-07-28T03:24:59.681Z,67.46
2016-07-28T03:25:59.707Z,67.46
2016-07-28T03:27:59.768Z,68.14
2016-07-28T03:28:59.785Z,68.04
2016-07-28T03:29:59.820Z,67.94
2016-07-28T03:30:59.838Z,67.66
2016-07-28T03:31:59.866Z,67.56
2016-07-28T03:32:59.893Z,67.56
2016-07-28T03:33:59.924Z,67.66
2016-07-28T03:34:59.946Z,67.36
2016-07-28T03:35:59.980Z,67.66
2016-07-28T03:36:59.999Z,67.56
2016-07-28T03:38:00.026Z,68.43
2016-07-28T03:39:00.051Z,68.24
2016-07-28T03:40:00.082Z,67.66
2016-07-28T03:41:00.105Z,68.43
2016-07-28T03:43:00.159Z,68.14
2016-07-28T03:44:00.183Z,68.24
2016-07-28T03:45:00.213Z,68.14
2016-07-28T03:46:00.245Z,68.04
2016-07-28T03:47:00.267Z,68.14
2016-07-28T03:48:00.292Z,68.14
2016-07-28T03:49:00.317Z,67.94
2016-07-28T03:50:00.345Z,68.24
2016-07-28T03:51:00.370Z,68.04
2016-07-28T03:52:00.396Z,68.04
2016-07-28T03:53:01.122Z,68.14
2016-07-28T03:54:00.457Z,68.04
2016-07-28T03:55:00.477Z,68.14
2016-07-28T03:56:00.504Z,68.04
2016-07-28T03:57:00.541Z,68.14
2016-07-28T03:58:00.557Z,67.94
2016-07-28T03:59:00.582Z,67.94
2016-07-28T04:00:00.610Z,67.85
2016-07-28T04:01:00.636Z,67.94
2016-07-28T04:02:00.671Z,67.94
2016-07-28T04:03:00.690Z,68.04
2016-07-28T04:04:00.714Z,68.14
2016-07-28T04:05:00.750Z,68.04
2016-07-28T04:06:00.777Z,67.94
2016-07-28T04:07:00.796Z,68.14
2016-07-28T04:08:00.822Z,68.04
2016-07-28T04:09:00.847Z,67.75
2016-07-28T04:10:00.882Z,68.04
2016-07-28T04:11:00.901Z,68.04
2016-07-28T04:12:00.936Z,67.85
2016-07-28T04:13:00.955Z,67.94
2016-07-28T04:14:01.003Z,67.94
2016-07-28T04:15:01.011Z,68.14
2016-07-28T04:16:01.033Z,68.04
2016-07-28T04:17:01.060Z,68.04
2016-07-28T04:18:01.087Z,67.85
2016-07-28T04:19:01.115Z,68.04
2016-07-28T04:20:01.151Z,68.04
2016-07-28T04:21:01.166Z,68.04
2016-07-28T04:22:01.896Z,68.04
2016-07-28T04:23:01.221Z,68.04
2016-07-28T04:24:01.247Z,68.04
2016-07-28T04:25:01.275Z,68.04
2016-07-28T04:26:01.300Z,68.04
2016-07-28T04:27:01.328Z,67.94
2016-07-28T04:28:01.360Z,68.14
2016-07-28T04:29:01.378Z,67.94
2016-07-28T04:30:01.408Z,67.94
2016-07-28T04:31:01.432Z,68.43
2016-07-28T04:32:01.461Z,68.14
2016-07-28T04:33:01.484Z,68.33
2016-07-28T04:34:01.515Z,68.04
2016-07-28T04:35:01.538Z,68.24
2016-07-28T04:36:01.574Z,68.24
2016-07-28T04:37:01.594Z,68.14
2016-07-28T04:38:01.616Z,68.33
2016-07-28T04:39:01.646Z,68.24
2016-07-28T04:40:01.680Z,68.24
2016-07-28T04:41:01.698Z,67.94
2016-07-28T04:42:01.729Z,68.14
2016-07-28T04:43:01.760Z,67.94
2016-07-28T04:44:01.779Z,68.24
2016-07-28T04:45:01.802Z,67.94
2016-07-28T04:46:01.831Z,68.33
2016-07-28T04:47:01.856Z,67.85
2016-07-28T04:48:01.889Z,67.85
2016-07-28T04:49:01.910Z,68.33
2016-07-28T04:50:01.942Z,68.43
2016-07-28T04:51:01.963Z,68.24
2016-07-28T04:52:01.996Z,68.24
2016-07-28T04:53:02.014Z,67.85
2016-07-28T04:54:02.044Z,68.43
2016-07-28T04:55:02.067Z,68.33
2016-07-28T04:56:02.102Z,68.04
2016-07-28T04:57:02.121Z,68.33
2016-07-28T04:58:02.150Z,68.24
2016-07-28T04:59:02.174Z,67.75
2016-07-28T05:00:02.204Z,68.24
2016-07-28T05:01:02.226Z,68.43
2016-07-28T05:02:02.255Z,68.43
2016-07-28T05:03:02.280Z,68.24
2016-07-28T05:04:02.307Z,67.75
2016-07-28T05:05:02.331Z,68.04
2016-07-28T05:06:02.364Z,68.33
2016-07-28T05:07:02.384Z,68.04
2016-07-28T05:08:02.415Z,67.94
2016-07-28T05:09:02.441Z,68.14
2016-07-28T05:10:02.467Z,68.14
2016-07-28T05:11:02.492Z,68.04
2016-07-28T05:12:02.517Z,68.04
2016-07-28T05:13:02.544Z,67.85
2016-07-28T05:14:02.577Z,68.24
2016-07-28T05:15:02.597Z,68.04
2016-07-28T05:16:02.630Z,67.94
2016-07-28T05:17:02.649Z,67.85
2016-07-28T05:18:02.684Z,67.85
2016-07-28T05:19:02.704Z,68.24
2016-07-28T05:20:02.737Z,67.94
2016-07-28T05:21:02.756Z,67.85
2016-07-28T05:22:02.784Z,68.14
2016-07-28T05:23:02.807Z,68.14
2016-07-28T05:24:02.836Z,67.85
2016-07-28T05:25:02.865Z,67.85
2016-07-28T05:26:02.889Z,67.85
2016-07-28T05:27:02.914Z,68.04
2016-07-28T05:28:02.950Z,67.94
2016-07-28T05:29:02.969Z,67.85
2016-07-28T05:30:02.994Z,67.85
2016-07-28T05:31:03.020Z,68.14
2016-07-28T05:32:03.056Z,68.14
2016-07-28T05:33:03.073Z,67.85
2016-07-28T05:34:03.101Z,68.04
2016-07-28T05:35:03.126Z,67.94
2016-07-28T05:36:03.161Z,67.85
2016-07-28T05:37:03.178Z,67.94
2016-07-28T05:38:03.904Z,67.94
2016-07-28T05:39:03.232Z,68.04
2016-07-28T05:40:03.260Z,68.14
2016-07-28T05:41:03.285Z,68.04
2016-07-28T05:42:04.015Z,67.85
2016-07-28T05:43:03.338Z,67.85
2016-07-28T05:44:03.367Z,68.04
2016-07-28T05:45:03.391Z,68.04
2016-07-28T05:46:03.425Z,67.85
2016-07-28T05:47:03.444Z,67.85
2016-07-28T05:48:03.471Z,67.85
2016-07-28T05:49:03.495Z,67.85
2016-07-28T05:50:03.532Z,68.04
2016-07-28T05:52:03.577Z,68.04
2016-07-28T05:53:03.605Z,68.14
2016-07-28T05:54:03.638Z,68.14
2016-07-28T05:55:03.656Z,67.94
2016-07-28T05:56:03.683Z,67.94
2016-07-28T05:57:03.709Z,67.85
2016-07-28T05:58:03.735Z,67.85
2016-07-28T05:59:03.763Z,67.85
2016-07-28T06:00:03.790Z,67.94
2016-07-28T06:01:03.813Z,68.14
2016-07-28T06:02:04.541Z,67.94
2016-07-28T06:03:03.865Z,68.04
2016-07-28T06:04:03.895Z,67.94
2016-07-28T06:05:03.921Z,67.85
2016-07-28T06:06:03.948Z,67.94
2016-07-28T06:07:03.974Z,68.14
2016-07-28T06:08:04.004Z,67.94
2016-07-28T06:09:04.026Z,68.04
2016-07-28T06:10:04.055Z,67.94
2016-07-28T06:11:04.076Z,68.04
2016-07-28T06:12:04.114Z,68.43
2016-07-28T06:13:04.146Z,67.85
2016-07-28T06:14:04.854Z,68.04
2016-07-28T06:15:04.185Z,68.14
2016-07-28T06:16:04.211Z,67.94
2016-07-28T06:17:04.237Z,67.85
2016-07-28T06:18:04.271Z,68.04
2016-07-28T06:19:04.290Z,68.14
2016-07-28T06:20:05.019Z,68.14
2016-07-28T06:21:04.344Z,67.94
2016-07-28T06:22:04.371Z,68.14
2016-07-28T06:23:04.400Z,68.14
2016-07-28T06:24:04.421Z,67.36
2016-07-28T06:25:04.449Z,67.59
2016-07-28T06:26:04.478Z,67.27
2016-07-28T06:27:04.501Z,67.49
2016-07-28T06:28:04.537Z,67.59
2016-07-28T06:29:04.555Z,67.79
2016-07-28T06:30:04.593Z,67.69
2016-07-28T06:31:04.608Z,67.21
2016-07-28T06:32:04.639Z,67.59
2016-07-28T06:33:04.660Z,67.46
2016-07-28T06:34:04.691Z,67.4
2016-07-28T06:35:04.715Z,67.27
2016-07-28T06:36:04.747Z,67.56
2016-07-28T06:37:04.768Z,67.46
2016-07-28T06:38:04.796Z,67.85
2016-07-28T06:39:04.820Z,67.49
2016-07-28T06:40:04.855Z,67.69
2016-07-28T06:41:04.874Z,67.49
2016-07-28T06:42:04.900Z,67.3
2016-07-28T06:43:04.927Z,67.3
2016-07-28T06:44:04.961Z,67.17
2016-07-28T06:45:04.982Z,67.4
2016-07-28T06:46:05.007Z,67.69
2016-07-28T06:47:05.033Z,67.21
2016-07-28T06:48:05.064Z,67.69
2016-07-28T06:49:05.085Z,67.49
2016-07-28T06:50:05.118Z,67.4
2016-07-28T06:51:05.139Z,67.3
2016-07-28T06:52:05.172Z,66.82
2016-07-28T06:53:05.193Z,66.91
2016-07-28T06:54:05.223Z,66.91
2016-07-28T06:55:05.244Z,66.82
2016-07-28T06:56:05.276Z,66.33
2016-07-28T06:57:05.299Z,66.82
2016-07-28T06:58:05.325Z,66.72
2016-07-28T06:59:05.351Z,66.05
2016-07-28T07:00:05.379Z,66.17
2016-07-28T07:01:05.406Z,65.69
2016-07-28T07:02:05.439Z,65.69
2016-07-28T07:03:05.456Z,65.5
2016-07-28T07:04:05.485Z,65.59
2016-07-28T07:05:05.511Z,65.2
2016-07-28T07:06:05.539Z,64.92
2016-07-28T07:07:05.572Z,64.37
2016-07-28T07:08:05.589Z,64.17
2016-07-28T07:09:05.617Z,64.17
2016-07-28T07:10:05.644Z,63.69
2016-07-28T07:11:05.669Z,63.49
2016-07-28T07:12:05.702Z,62.95
2016-07-28T07:13:05.724Z,62.27
2016-07-28T07:14:05.758Z,61.14
2016-07-28T07:15:05.779Z,61.04
2016-07-28T07:16:05.806Z,60.78
2016-07-28T07:17:05.832Z,60.3
2016-07-28T07:18:05.858Z,61.07
2016-07-28T07:19:05.887Z,61.52
2016-07-28T07:20:05.922Z,61.43
2016-07-28T07:21:05.941Z,62.1
2016-07-28T07:22:05.974Z,63.14
2016-07-28T07:23:05.996Z,62.66
2016-07-28T07:24:06.031Z,62.85
2016-07-28T07:25:06.052Z,62.85
2016-07-28T07:26:06.085Z,62.66
2016-07-28T07:27:06.109Z,62.56
2016-07-28T07:28:06.135Z,62.46
2016-07-28T07:29:06.165Z,62.17
2016-07-28T07:30:06.194Z,61.52
2016-07-28T07:31:06.219Z,61.52
2016-07-28T07:32:06.247Z,61.62
2016-07-28T07:33:06.275Z,60.75
2016-07-28T07:34:06.503Z,60.75
2016-07-28T07:35:06.328Z,60.3
2016-07-28T07:36:06.360Z,60.3
2016-07-28T07:37:06.385Z,60.58
2016-07-28T07:38:06.413Z,60.2
2016-07-28T07:39:06.442Z,59.13
2016-07-28T07:40:06.472Z,59.06
2016-07-28T07:41:06.499Z,58.03
2016-07-28T07:42:06.527Z,55.92
2016-07-28T07:43:06.554Z,55.46
2016-07-28T07:44:06.583Z,55.98
2016-07-28T07:45:06.612Z,56.07
2016-07-28T07:46:06.641Z,56.92
2016-07-28T07:47:06.667Z,56.3
2016-07-28T07:48:06.698Z,56.11
2016-07-28T07:49:06.723Z,56.43
2016-07-28T07:50:06.756Z,56.89
2016-07-28T07:51:06.780Z,57.37
2016-07-28T07:52:06.811Z,57.73
2016-07-28T07:53:06.840Z,57.83
2016-07-28T07:54:06.867Z,57.54
2016-07-28T07:55:06.897Z,57.34
2016-07-28T07:56:06.933Z,58.22
2016-07-28T07:57:06.952Z,57.83
2016-07-28T07:58:06.986Z,58.12
2016-07-28T07:59:07.009Z,58.41
2016-07-28T08:00:07.038Z,58.03
2016-07-28T08:01:07.066Z,58.03
2016-07-28T08:02:07.108Z,58.03
2016-07-28T08:03:07.123Z,57.93
2016-07-28T08:04:07.159Z,57.64
2016-07-28T08:05:07.182Z,58.03
2016-07-28T08:06:07.217Z,58.03
2016-07-28T08:07:07.243Z,58.22
2016-07-28T08:08:07.266Z,58.12
2016-07-28T08:09:07.298Z,58.31
2016-07-28T08:10:07.328Z,58.31
2016-07-28T08:11:07.351Z,57.34
2016-07-28T08:12:07.387Z,57.15
2016-07-28T08:13:07.409Z,57.28
2016-07-28T08:14:07.445Z,56.89
2016-07-28T08:15:07.467Z,56.79
2016-07-28T08:16:07.501Z,56.7
2016-07-28T08:17:07.525Z,56.6
2016-07-28T08:18:07.561Z,57.18
2016-07-28T08:19:07.582Z,57.28
2016-07-28T08:20:07.617Z,57.37
2016-07-28T08:21:07.640Z,57.25
2016-07-28T08:22:07.666Z,58.31
2016-07-28T08:23:07.695Z,58.03
2016-07-28T08:24:07.727Z,57.73
2016-07-28T08:25:07.755Z,57.64
2016-07-28T08:26:07.792Z,58.41
2016-07-28T08:27:07.812Z,58.03
2016-07-28T08:29:07.871Z,58.09
2016-07-28T08:30:07.898Z,58.22
2016-07-28T08:31:07.927Z,58.41
2016-07-28T08:32:07.956Z,58.51
2016-07-28T08:33:07.982Z,58.39
2016-07-28T08:34:08.027Z,58.77
2016-07-28T08:35:08.044Z,58.58
2016-07-28T08:36:08.072Z,59.06
2016-07-28T08:37:08.098Z,59.16
2016-07-28T08:38:08.836Z,58.87
2016-07-28T08:39:08.168Z,59.06
2016-07-28T08:40:08.187Z,59.64
2016-07-28T08:41:08.215Z,60.2
2016-07-28T08:42:08.243Z,60
2016-07-28T08:43:08.269Z,59.81
2016-07-28T08:44:08.300Z,60.2
2016-07-28T08:45:08.326Z,60.1
2016-07-28T08:46:08.357Z,60.49
2016-07-28T08:47:08.386Z,60.68
2016-07-28T08:48:08.421Z,60.3
2016-07-28T08:49:08.442Z,60.3
2016-07-28T08:50:08.478Z,60.88
2016-07-28T08:51:08.498Z,60.94
2016-07-28T08:52:08.529Z,60.58
2016-07-28T08:53:08.556Z,60.78
2016-07-28T08:54:08.585Z,60.75
2016-07-28T08:55:08.614Z,60.65
2016-07-28T08:56:08.643Z,61.24
2016-07-28T08:57:08.669Z,61.24
2016-07-28T08:58:08.699Z,61.14
2016-07-28T08:59:08.727Z,61.14
2016-07-28T09:00:08.764Z,61.14
2016-07-28T09:01:08.784Z,60.94
2016-07-28T09:02:08.823Z,61.14
2016-07-28T09:03:08.841Z,61.52
2016-07-28T09:04:08.873Z,61.04
2016-07-28T09:05:08.900Z,61.52
2016-07-28T09:06:08.936Z,61.52
2016-07-28T09:07:08.957Z,61.43
2016-07-28T09:08:08.987Z,61.43
2016-07-28T09:09:09.014Z,61.72
2016-07-28T09:10:09.050Z,60.85
2016-07-28T09:11:09.070Z,61.04
2016-07-28T09:12:09.808Z,60.85
2016-07-28T09:13:09.127Z,61.04
2016-07-28T09:14:09.155Z,60.75
2016-07-28T09:15:09.184Z,60.78
2016-07-28T09:16:09.215Z,60.2
2016-07-28T09:17:09.240Z,60.3
2016-07-28T09:18:09.274Z,60.78
2016-07-28T09:19:09.300Z,60.68
2016-07-28T09:20:09.334Z,60.49
2016-07-28T09:21:09.358Z,60.68
2016-07-28T09:22:09.388Z,60.1
2016-07-28T09:23:09.415Z,60.58
2016-07-28T09:24:09.444Z,60.58
2016-07-28T09:25:09.472Z,60.49
2016-07-28T09:26:09.705Z,60.68
2016-07-28T09:27:09.528Z,60.68
2016-07-28T09:28:09.559Z,60.2
2016-07-28T09:29:09.585Z,60.78
2016-07-28T09:30:09.616Z,60.3
2016-07-28T09:31:09.645Z,60.2
2016-07-28T09:32:09.672Z,60.68
2016-07-28T09:33:09.701Z,60.3
2016-07-28T09:34:09.731Z,60.3
2016-07-28T09:35:09.758Z,60.58
2016-07-28T09:36:09.799Z,60.68
2016-07-28T09:37:09.824Z,60.2
2016-07-28T09:38:09.845Z,60.39
2016-07-28T09:39:09.926Z,60.1
2016-07-28T09:40:10.603Z,59.71
2016-07-28T09:41:09.931Z,59.81
2016-07-28T09:42:09.963Z,60
2016-07-28T09:43:09.987Z,60
2016-07-28T09:44:10.014Z,59.84
2016-07-28T09:45:10.043Z,59.61
2016-07-28T09:46:10.073Z,59.61
2016-07-28T09:47:10.100Z,59.45
2016-07-28T09:48:10.131Z,59.16
2016-07-28T09:49:10.159Z,58.87
2016-07-28T09:50:10.186Z,59.16
2016-07-28T09:51:10.216Z,58.87
2016-07-28T09:52:10.253Z,58.58
2016-07-28T09:53:10.275Z,58.77
2016-07-28T09:54:10.301Z,58.48
2016-07-28T09:55:10.335Z,58.39
2016-07-28T09:56:10.360Z,58.09
2016-07-28T09:57:10.387Z,57.8
2016-07-28T09:58:10.416Z,57.93
2016-07-28T09:59:10.453Z,58.03
2016-07-28T10:00:10.477Z,58.22
2016-07-28T10:01:10.504Z,57.44
2016-07-28T10:02:10.536Z,57.34
2016-07-28T10:03:10.560Z,57.15
2016-07-28T10:04:10.590Z,57.37
2016-07-28T10:05:10.617Z,57.28
2016-07-28T10:06:10.648Z,57.28
2016-07-28T10:07:10.678Z,57.47
2016-07-28T10:08:10.704Z,56.7
2016-07-28T10:09:10.733Z,56.79
2016-07-28T10:10:10.763Z,56.89
2016-07-28T10:11:10.799Z,56.98
2016-07-28T10:12:10.821Z,56.7
2016-07-28T10:13:10.850Z,56.89
2016-07-28T10:14:10.877Z,57.28
2016-07-28T10:15:10.912Z,56.4
2016-07-28T10:16:10.936Z,56.6
2016-07-28T10:17:11.661Z,57.37
2016-07-28T10:18:11.002Z,57.28
2016-07-28T10:19:11.031Z,57.54
2016-07-28T10:20:11.052Z,57.28
2016-07-28T10:21:11.085Z,57.08
2016-07-28T10:22:11.123Z,57.15
2016-07-28T10:23:11.153Z,57.25
2016-07-28T10:24:11.167Z,57.18
2016-07-28T10:25:11.199Z,56.79
2016-07-28T10:26:11.226Z,56.7
2016-07-28T10:27:11.258Z,56.7
2016-07-28T10:28:11.283Z,56.11
2016-07-28T10:29:11.315Z,56.01
2016-07-28T10:30:11.341Z,56.21
2016-07-28T10:31:11.368Z,56.01
2016-07-28T10:33:11.433Z,56.5
2016-07-28T10:34:11.458Z,56.01
2016-07-28T10:35:11.486Z,55.63
2016-07-28T10:36:11.514Z,55.94
2016-07-28T10:37:11.544Z,55.65
2016-07-28T10:38:11.571Z,56.3
2016-07-28T10:39:11.600Z,56.3
2016-07-28T10:40:11.633Z,56.01
2016-07-28T10:41:11.658Z,56.11
2016-07-28T10:42:11.688Z,56.21
2016-07-28T10:43:11.726Z,56.24
2016-07-28T10:44:11.746Z,56.01
2016-07-28T10:45:11.774Z,56.21
2016-07-28T10:46:11.805Z,55.92
2016-07-28T10:47:11.832Z,56.04
2016-07-28T10:48:11.868Z,55.92
2016-07-28T10:49:11.891Z,55.94
2016-07-28T10:50:11.920Z,55.92
2016-07-28T10:51:11.950Z,55.46
2016-07-28T10:52:11.977Z,55.75
2016-07-28T10:53:12.006Z,55.46
2016-07-28T10:54:12.036Z,55.75
2016-07-28T10:55:12.064Z,56.04
2016-07-28T10:56:12.098Z,55.85
2016-07-28T10:57:12.122Z,55.94
2016-07-28T10:58:12.152Z,56.11
2016-07-28T10:59:12.189Z,56.14
2016-07-28T11:00:12.212Z,56.3
2016-07-28T11:01:12.242Z,56.01
2016-07-28T11:02:12.270Z,56.6
2016-07-28T11:03:12.297Z,56.11
2016-07-28T11:04:12.325Z,56.01
2016-07-28T11:05:12.355Z,55.92
2016-07-28T11:06:12.386Z,56.4
2016-07-28T11:07:12.412Z,55.92
2016-07-28T11:08:12.442Z,56.01
2016-07-28T11:09:12.471Z,56.01
2016-07-28T11:10:12.504Z,56.21
2016-07-28T11:11:12.527Z,56.11
2016-07-28T11:12:12.558Z,56.21
2016-07-28T11:13:12.585Z,56.21
2016-07-28T11:14:12.628Z,56.21
2016-07-28T11:15:12.644Z,56.11
2016-07-28T11:16:12.676Z,56.21
2016-07-28T11:17:12.703Z,56.4
2016-07-28T11:18:12.731Z,56.4
2016-07-28T11:19:12.759Z,56.79
2016-07-28T11:20:12.789Z,57.08
2016-07-28T11:21:12.825Z,56.79
2016-07-28T11:22:12.847Z,56.4
2016-07-28T11:23:12.874Z,55.82
2016-07-28T11:24:12.905Z,56.01
2016-07-28T11:25:12.932Z,55.92
2016-07-28T11:26:12.963Z,56.11
2016-07-28T11:27:12.991Z,56.4
2016-07-28T11:28:13.027Z,56.11
2016-07-28T11:29:13.052Z,55.92
2016-07-28T11:30:13.080Z,56.3
2016-07-28T11:31:13.108Z,55.63
2016-07-28T11:32:13.135Z,55.85
2016-07-28T11:33:13.164Z,55.65
2016-07-28T11:34:13.195Z,56.11
2016-07-28T11:35:13.224Z,56.4
2016-07-28T11:36:13.252Z,56.3
2016-07-28T11:37:13.280Z,56.21
2016-07-28T11:38:13.312Z,55.92
2016-07-28T11:39:13.339Z,56.21
2016-07-28T11:40:13.368Z,56.4
2016-07-28T11:41:13.397Z,56.11
2016-07-28T11:42:13.426Z,56.3
2016-07-28T11:43:13.455Z,56.11
2016-07-28T11:44:13.490Z,56.01
2016-07-28T11:45:13.513Z,56.11
2016-07-28T11:46:13.541Z,56.01
2016-07-28T11:47:13.570Z,56.21
2016-07-28T11:48:13.600Z,56.3
2016-07-28T11:49:13.628Z,56.5
2016-07-28T11:50:13.658Z,56.21
2016-07-28T11:51:13.687Z,56.11
2016-07-28T11:52:13.721Z,56.21
2016-07-28T11:53:13.744Z,56.11
2016-07-28T11:54:13.774Z,56.6
2016-07-28T11:55:13.803Z,56.7
2016-07-28T11:56:13.834Z,56.7
2016-07-28T11:57:13.861Z,56.89
2016-07-28T11:58:13.890Z,56.79
2016-07-28T12:00:13.952Z,56.6
2016-07-28T12:01:13.975Z,56.79
2016-07-28T12:02:14.006Z,56.89
2016-07-28T12:03:14.033Z,56.5
2016-07-28T12:04:14.063Z,56.79
2016-07-28T12:05:14.092Z,56.4
2016-07-28T12:06:14.119Z,56.3
2016-07-28T12:07:14.154Z,56.11
2016-07-28T12:08:14.178Z,56.01
2016-07-28T12:09:14.206Z,56.21
2016-07-28T12:10:14.236Z,56.21
2016-07-28T12:11:14.266Z,56.4
2016-07-28T12:12:14.295Z,56.4
2016-07-28T12:13:14.323Z,56.89
2016-07-28T12:14:14.361Z,56.21
2016-07-28T12:15:14.383Z,56.5
2016-07-28T12:16:14.419Z,56.4
2016-07-28T12:17:14.439Z,56.98
2016-07-28T12:18:14.472Z,56.6
2016-07-28T12:19:14.554Z,56.89
2016-07-28T12:20:14.531Z,56.7
2016-07-28T12:21:14.556Z,56.89
2016-07-28T12:22:14.583Z,56.7
2016-07-28T12:23:14.621Z,56.79
2016-07-28T12:24:14.658Z,56.7
2016-07-28T12:25:14.672Z,56.89
2016-07-28T12:27:14.734Z,56.89
2016-07-28T12:28:14.765Z,56.6
2016-07-28T12:29:14.784Z,56.6
2016-07-28T12:30:14.817Z,56.7
2016-07-28T12:31:14.844Z,56.89
2016-07-28T12:32:14.878Z,56.7
2016-07-28T12:33:14.901Z,56.89
2016-07-28T12:34:14.931Z,56.11
2016-07-28T12:35:14.960Z,56.89
2016-07-28T12:36:14.995Z,56.21
2016-07-28T12:37:15.022Z,56.11
2016-07-28T12:38:15.745Z,56.89
2016-07-28T12:39:15.077Z,56.89
2016-07-28T12:40:15.104Z,56.79
2016-07-28T12:41:15.138Z,56.79
2016-07-28T12:42:15.163Z,56.7
2016-07-28T12:43:15.190Z,56.79
2016-07-28T12:44:15.222Z,56.5
2016-07-28T12:45:15.248Z,56.4
2016-07-28T12:46:15.279Z,56.11
2016-07-28T12:47:15.310Z,56.11
2016-07-28T12:48:15.335Z,55.92
2016-07-28T12:49:15.367Z,56.11
2016-07-28T12:50:15.395Z,56.11
2016-07-28T12:51:15.425Z,56.11
2016-07-28T12:52:15.454Z,55.92
2016-07-28T12:53:15.480Z,56.01
2016-07-28T12:54:15.511Z,56.4
2016-07-28T12:55:15.539Z,56.21
2016-07-28T12:56:15.568Z,56.4
2016-07-28T12:57:15.597Z,55.92
2016-07-28T12:58:15.624Z,56.01
2016-07-28T12:59:15.656Z,56.01
2016-07-28T13:00:15.684Z,55.92
2016-07-28T13:01:15.712Z,56.01
2016-07-28T13:02:15.742Z,56.01
2016-07-28T13:03:15.775Z,56.11
2016-07-28T13:04:15.801Z,56.21
2016-07-28T13:05:15.827Z,56.5